Time;durP1;ratioP1;P1;durP2;ratioP2;P2;SDS_P1;SDS_P2;PMS_P1;PMS_P2;Temp;Humidity;BMP_temperature;BMP_pressure;BME280_temperature;BME280_humidity;BME280_pressure;Samples;Min_cycle;Max_cycle;Signal;HPM_P1;HPM_P2
2023/06/12 00:01:47;;;;;;;0.00;0.00;;;19.20;74.90;;;;;;5072484;28;20205;-61
2023/06/12 00:04:13;;;;;;;0.00;0.00;;;19.20;73.90;;;;;;5072784;28;20196;-62
2023/06/12 00:06:40;;;;;;;0.00;0.00;;;19.20;74.20;;;;;;5072775;28;20181;-62
2023/06/12 00:09:05;;;;;;;0.00;0.00;;;19.20;74.30;;;;;;5071996;28;20721;-61
2023/06/12 00:11:32;;;;;;;0.10;0.10;;;19.10;74.40;;;;;;5072087;28;20173;-61
2023/06/12 00:13:57;;;;;;;0.10;0.10;;;19.10;74.40;;;;;;5072222;28;20251;-61
2023/06/12 00:16:24;;;;;;;0.00;0.00;;;19.10;74.70;;;;;;5072773;28;20201;-61
2023/06/12 00:18:51;;;;;;;0.00;0.00;;;19.00;74.80;;;;;;5061776;28;20196;-62
2023/06/12 00:21:17;;;;;;;0.00;0.00;;;19.00;75.20;;;;;;5069741;28;20188;-62
2023/06/12 00:23:42;;;;;;;0.00;0.00;;;18.90;75.50;;;;;;5072194;28;20215;-61
2023/06/12 00:26:11;;;;;;;0.00;0.00;;;18.90;75.60;;;;;;5072494;28;20173;-61
2023/06/12 00:28:37;;;;;;;0.00;0.00;;;18.90;76.40;;;;;;5071864;28;20196;-61
2023/06/12 00:31:02;;;;;;;0.25;0.25;;;18.90;75.60;;;;;;5072372;28;20177;-61
2023/06/12 00:33:28;;;;;;;0.00;0.00;;;18.80;76.00;;;;;;5072010;28;20173;-61
2023/06/12 00:35:53;;;;;;;0.00;0.00;;;18.70;76.30;;;;;;5071861;28;20708;-61
2023/06/12 00:38:20;;;;;;;0.10;0.10;;;18.60;76.60;;;;;;5071948;28;20180;-61
2023/06/12 00:40:46;;;;;;;0.00;0.00;;;18.50;77.00;;;;;;5070574;28;20280;-61
2023/06/12 00:43:11;;;;;;;0.00;0.00;;;18.50;77.20;;;;;;5071643;28;20715;-62
2023/06/12 00:45:37;;;;;;;0.00;0.00;;;18.40;77.60;;;;;;5072026;28;20180;-61
2023/06/12 00:48:05;;;;;;;0.00;0.00;;;18.30;77.90;;;;;;5072485;28;20276;-62
2023/06/12 00:50:31;;;;;;;0.00;0.00;;;18.30;78.30;;;;;;5072322;28;20554;-62
2023/06/12 00:52:58;;;;;;;0.03;0.03;;;18.20;78.50;;;;;;5071750;28;20188;-62
2023/06/12 00:55:25;;;;;;;0.00;0.00;;;18.20;78.90;;;;;;5072349;28;20234;-62
2023/06/12 00:57:51;;;;;;;0.00;0.00;;;18.20;79.10;;;;;;5072045;28;20177;-62
2023/06/12 01:00:19;;;;;;;0.00;0.00;;;18.20;79.20;;;;;;5072221;28;20188;-62
2023/06/12 01:02:50;;;;;;;0.00;0.00;;;18.20;79.20;;;;;;5071908;28;20224;-62
2023/06/12 01:05:19;;;;;;;0.10;0.10;;;18.30;79.20;;;;;;5072192;28;20203;-62
2023/06/12 01:08:01;;;;;;;0.10;0.10;;;18.20;79.10;;;;;;5071533;28;20181;-62
2023/06/12 01:10:37;;;;;;;0.00;0.00;;;18.20;79.10;;;;;;5072078;28;20180;-62
2023/06/12 01:13:03;;;;;;;0.00;0.00;;;18.30;79.10;;;;;;5052075;28;20174;-62
2023/06/12 01:15:29;;;;;;;0.00;0.00;;;18.30;79.10;;;;;;5065004;28;20177;-62
2023/06/12 01:17:54;;;;;;;0.00;0.00;;;18.30;79.50;;;;;;5071832;28;20280;-62
2023/06/12 01:20:20;;;;;;;0.00;0.00;;;18.20;79.40;;;;;;5071883;28;20177;-63
2023/06/12 01:22:55;;;;;;;0.00;0.00;;;18.20;79.30;;;;;;5071648;28;20216;-62
2023/06/12 01:25:45;;;;;;;0.10;0.10;;;18.30;79.40;;;;;;5071589;28;20172;-62
2023/06/12 01:28:37;;;;;;;0.00;0.00;;;18.20;79.60;;;;;;5071566;28;20232;-62
2023/06/12 01:31:50;;;;;;;0.00;0.00;;;18.10;80.10;;;;;;5071664;28;20225;-62
2023/06/12 01:34:25;;;;;;;0.00;0.00;;;18.00;80.40;;;;;;5049085;28;20177;-62
2023/06/12 01:37:05;;;;;;;0.00;0.00;;;18.00;80.70;;;;;;5071383;28;20183;-62
2023/06/12 01:39:38;;;;;;;0.00;0.00;;;18.00;80.80;;;;;;5071130;28;20567;-62
2023/06/12 01:42:06;;;;;;;0.00;0.00;;;18.00;81.00;;;;;;5071509;28;20250;-62
2023/06/12 01:44:33;;;;;;;0.00;0.00;;;17.90;81.00;;;;;;5071394;28;20660;-62
2023/06/12 01:46:59;;;;;;;0.00;0.00;;;17.90;81.20;;;;;;5070975;28;20183;-62
2023/06/12 01:49:25;;;;;;;0.10;0.10;;;17.90;81.60;;;;;;5071306;28;20228;-62
2023/06/12 01:51:50;;;;;;;0.00;0.00;;;17.80;81.70;;;;;;5071188;28;20173;-63
2023/06/12 01:54:17;;;;;;;0.00;0.00;;;17.80;82.10;;;;;;5071162;28;20169;-62
2023/06/12 01:56:42;;;;;;;0.00;0.00;;;17.80;82.40;;;;;;5070042;28;20192;-62
2023/06/12 01:59:08;;;;;;;0.00;0.00;;;17.80;82.90;;;;;;5070851;28;20675;-62
2023/06/12 02:01:34;;;;;;;0.00;0.00;;;17.80;82.90;;;;;;5070941;28;20168;-62
2023/06/12 02:04:00;;;;;;;0.52;0.52;;;17.80;83.00;;;;;;5070950;28;20652;-63
2023/06/12 02:06:25;;;;;;;0.10;0.10;;;17.80;83.40;;;;;;5067946;28;20184;-63
2023/06/12 02:08:52;;;;;;;0.00;0.00;;;17.70;83.70;;;;;;5069088;28;20624;-63
2023/06/12 02:11:18;;;;;;;0.00;0.00;;;17.60;84.20;;;;;;5070487;28;20216;-63
2023/06/12 02:13:43;;;;;;;0.00;0.00;;;17.40;84.90;;;;;;5065825;28;20739;-63
2023/06/12 02:16:09;;;;;;;0.00;0.00;;;17.30;85.30;;;;;;5049489;28;20264;-63
2023/06/12 02:18:35;;;;;;;0.13;0.13;;;17.30;86.00;;;;;;5051861;28;20185;-62
2023/06/12 02:21:00;;;;;;;0.00;0.00;;;17.20;86.60;;;;;;5070870;28;20697;-62
2023/06/12 02:23:26;;;;;;;0.22;0.22;;;17.10;87.00;;;;;;5070604;28;20572;-62
2023/06/12 02:25:51;;;;;;;0.00;0.00;;;17.00;87.60;;;;;;5070513;28;20184;-63
2023/06/12 02:28:17;;;;;;;0.00;0.00;;;17.00;88.40;;;;;;5070651;28;20750;-63
2023/06/12 02:30:42;;;;;;;0.25;0.25;;;16.90;88.80;;;;;;5070326;28;20173;-62
2023/06/12 02:33:09;;;;;;;0.47;0.47;;;16.90;89.40;;;;;;5070579;28;20271;-62
2023/06/12 02:35:36;;;;;;;0.00;0.00;;;16.90;90.00;;;;;;5070704;28;20219;-62
2023/06/12 02:38:02;;;;;;;0.00;0.00;;;16.90;90.10;;;;;;5070773;28;20172;-62
2023/06/12 02:40:27;;;;;;;0.00;0.00;;;16.90;90.40;;;;;;5070526;28;20264;-62
2023/06/12 02:42:53;;;;;;;0.00;0.00;;;16.80;90.60;;;;;;5070316;28;20219;-63
2023/06/12 02:45:21;;;;;;;0.00;0.00;;;16.80;91.10;;;;;;5070616;28;20255;-62
2023/06/12 02:47:47;;;;;;;0.08;0.08;;;16.70;91.10;;;;;;5070211;28;20528;-63
2023/06/12 02:50:12;;;;;;;0.00;0.00;;;16.70;91.30;;;;;;5070611;28;20184;-63
2023/06/12 02:52:40;;;;;;;0.03;0.03;;;16.70;91.60;;;;;;5070628;28;20177;-62
2023/06/12 02:55:06;;;;;;;0.00;0.00;;;16.70;91.80;;;;;;5069881;28;20173;-63
2023/06/12 02:57:32;;;;;;;0.00;0.00;;;16.70;91.90;;;;;;5069732;28;20216;-63
2023/06/12 02:59:58;;;;;;;0.00;0.00;;;16.60;92.10;;;;;;5069965;28;20222;-63
2023/06/12 03:02:23;;;;;;;0.00;0.00;;;16.70;92.30;;;;;;5070113;28;20230;-63
2023/06/12 03:04:49;;;;;;;0.00;0.00;;;16.70;92.30;;;;;;5069925;28;20199;-63
2023/06/12 03:07:16;;;;;;;0.03;0.03;;;16.70;92.40;;;;;;5066814;28;20181;-63
2023/06/12 03:09:42;;;;;;;0.00;0.00;;;16.70;92.50;;;;;;5070569;28;20263;-63
2023/06/12 03:12:08;;;;;;;0.03;0.03;;;16.70;92.60;;;;;;5070359;28;20188;-63
2023/06/12 03:14:34;;;;;;;0.00;0.00;;;16.70;92.60;;;;;;5061360;28;20644;-64
2023/06/12 03:16:59;;;;;;;0.00;0.00;;;16.70;92.70;;;;;;5069503;28;20533;-63
2023/06/12 03:19:25;;;;;;;0.00;0.00;;;16.70;92.80;;;;;;5065875;28;20505;-64
2023/06/12 03:21:51;;;;;;;0.00;0.00;;;16.70;93.00;;;;;;5069305;28;20668;-63
2023/06/12 03:24:16;;;;;;;0.00;0.00;;;16.70;93.00;;;;;;5072430;28;20203;-63
2023/06/12 03:26:42;;;;;;;0.00;0.00;;;16.70;93.10;;;;;;5073645;28;20297;-69
2023/06/12 03:29:08;;;;;;;0.00;0.00;;;16.70;93.10;;;;;;5074099;28;20184;-68
2023/06/12 03:31:33;;;;;;;0.00;0.00;;;16.70;93.30;;;;;;5074146;28;20172;-67
2023/06/12 03:33:59;;;;;;;0.00;0.00;;;16.70;93.30;;;;;;5074137;28;20670;-68
2023/06/12 03:36:25;;;;;;;0.13;0.03;;;16.70;93.50;;;;;;5073960;28;20168;-68
2023/06/12 03:38:51;;;;;;;0.00;0.00;;;16.70;93.70;;;;;;5073804;28;20188;-68
2023/06/12 03:41:20;;;;;;;0.00;0.00;;;16.70;93.90;;;;;;5073492;28;20169;-70
2023/06/12 03:43:45;;;;;;;0.00;0.00;;;16.70;93.90;;;;;;5074778;28;20307;-71
2023/06/12 03:46:11;;;;;;;0.10;0.10;;;16.70;94.20;;;;;;5073743;28;20317;-72
2023/06/12 03:48:36;;;;;;;0.00;0.00;;;16.70;94.40;;;;;;5073442;28;20238;-73
2023/06/12 03:51:02;;;;;;;0.00;0.00;;;16.70;94.50;;;;;;5073654;28;20177;-70
2023/06/12 03:53:27;;;;;;;0.00;0.00;;;16.80;94.60;;;;;;5073718;28;20194;-70
2023/06/12 03:55:53;;;;;;;0.00;0.00;;;16.80;94.80;;;;;;5073681;28;20225;-75
2023/06/12 03:58:18;;;;;;;0.00;0.00;;;16.80;94.70;;;;;;5073876;28;20173;-74
2023/06/12 04:00:47;;;;;;;0.90;0.65;;;16.90;94.90;;;;;;5073398;28;20173;-78
2023/06/12 04:03:20;;;;;;;0.00;0.00;;;17.00;94.60;;;;;;5073663;28;20278;-74
2023/06/12 04:05:55;;;;;;;0.00;0.00;;;17.10;94.30;;;;;;5073517;28;20247;-74
2023/06/12 04:08:22;;;;;;;0.00;0.00;;;17.20;94.20;;;;;;5073364;28;20168;-76
2023/06/12 04:10:47;;;;;;;0.00;0.00;;;17.30;94.20;;;;;;5072180;28;20703;-77
2023/06/12 04:13:13;;;;;;;0.00;0.00;;;17.30;94.20;;;;;;5072230;28;20263;-73
2023/06/12 04:15:39;;;;;;;0.10;0.10;;;17.40;94.00;;;;;;5071632;28;20253;-74
2023/06/12 04:18:07;;;;;;;0.00;0.00;;;17.60;93.90;;;;;;5072580;28;20184;-75
2023/06/12 04:20:33;;;;;;;0.00;0.00;;;17.70;93.90;;;;;;5072811;28;20666;-75
2023/06/12 04:23:04;;;;;;;0.00;0.00;;;17.90;93.70;;;;;;5072327;28;20217;-71
2023/06/12 04:25:30;;;;;;;0.00;0.00;;;18.20;93.40;;;;;;5072642;28;20188;-74
2023/06/12 04:27:56;;;;;;;0.03;0.03;;;18.60;92.90;;;;;;5072350;28;20589;-72
2023/06/12 04:30:23;;;;;;;0.00;0.00;;;18.90;92.50;;;;;;5072085;28;20215;-72
2023/06/12 04:32:48;;;;;;;0.00;0.00;;;19.10;92.00;;;;;;5071171;28;20177;-71
2023/06/12 04:35:19;;;;;;;0.00;0.00;;;19.40;91.50;;;;;;5070871;28;20176;-71
2023/06/12 04:37:44;;;;;;;0.00;0.00;;;19.70;90.80;;;;;;5072536;28;20180;-71
2023/06/12 04:40:11;;;;;;;0.00;0.00;;;20.10;89.90;;;;;;5072585;28;20176;-72
2023/06/12 04:42:37;;;;;;;0.00;0.00;;;20.30;87.80;;;;;;5072494;28;20796;-71
2023/06/12 04:45:04;;;;;;;0.00;0.00;;;20.60;87.40;;;;;;5072584;28;20169;-71
2023/06/12 04:47:30;;;;;;;0.00;0.00;;;20.80;86.30;;;;;;5072634;28;20188;-71
2023/06/12 04:49:57;;;;;;;0.00;0.00;;;21.10;85.80;;;;;;5072315;28;20723;-71
2023/06/12 04:52:24;;;;;;;0.00;0.00;;;21.20;84.70;;;;;;5072412;28;20177;-71
2023/06/12 04:54:52;;;;;;;0.00;0.00;;;21.50;83.50;;;;;;5071461;28;20585;-71
2023/06/12 04:57:18;;;;;;;0.00;0.00;;;21.70;82.50;;;;;;5072616;28;20172;-70
2023/06/12 04:59:45;;;;;;;0.00;0.00;;;22.10;81.60;;;;;;5072416;28;20176;-70
2023/06/12 05:02:11;;;;;;;0.05;0.05;;;22.50;79.90;;;;;;5072465;28;20231;-71
2023/06/12 05:04:38;;;;;;;0.10;0.10;;;22.80;79.00;;;;;;5072549;28;20192;-70
2023/06/12 05:07:14;;;;;;;0.00;0.00;;;23.20;77.70;;;;;;5072130;28;20260;-71
2023/06/12 05:09:40;;;;;;;0.00;0.00;;;23.60;76.70;;;;;;5072367;28;20500;-70
2023/06/12 05:12:06;;;;;;;0.00;0.00;;;24.00;75.40;;;;;;5071966;28;20267;-70
2023/06/12 05:14:34;;;;;;;0.00;0.00;;;24.20;74.00;;;;;;5072307;28;20226;-70
2023/06/12 05:17:00;;;;;;;0.00;0.00;;;24.50;73.30;;;;;;5072002;28;20256;-70
2023/06/12 05:19:26;;;;;;;0.00;0.00;;;24.90;72.10;;;;;;5071923;28;20181;-70
2023/06/12 05:21:52;;;;;;;0.00;0.00;;;25.10;70.70;;;;;;5071716;28;20196;-71
2023/06/12 05:24:17;;;;;;;0.00;0.00;;;25.50;69.90;;;;;;5071989;28;20250;-71
2023/06/12 05:26:43;;;;;;;0.00;0.00;;;25.80;68.80;;;;;;5071580;28;20702;-70
2023/06/12 05:29:09;;;;;;;0.10;0.00;;;26.00;67.00;;;;;;5071929;28;20176;-71
2023/06/12 05:31:34;;;;;;;0.20;0.20;;;26.10;66.10;;;;;;5071901;28;20519;-70
2023/06/12 05:34:00;;;;;;;0.00;0.00;;;26.20;65.40;;;;;;5071746;28;20200;-70
2023/06/12 05:36:26;;;;;;;0.00;0.00;;;26.40;64.50;;;;;;5071699;28;20173;-71
2023/06/12 05:38:51;;;;;;;0.00;0.00;;;26.70;62.90;;;;;;5071543;28;20589;-70
2023/06/12 05:41:17;;;;;;;0.00;0.00;;;26.80;62.10;;;;;;5071702;28;20218;-70
2023/06/12 05:43:45;;;;;;;0.00;0.00;;;27.20;62.20;;;;;;5071512;28;20232;-70
2023/06/12 05:46:11;;;;;;;0.00;0.00;;;27.40;60.50;;;;;;5070783;28;20764;-71
2023/06/12 05:48:37;;;;;;;0.00;0.00;;;27.50;59.20;;;;;;5071598;28;20165;-71
2023/06/12 05:51:05;;;;;;;0.00;0.00;;;27.40;59.50;;;;;;5071415;28;20187;-71
2023/06/12 05:53:32;;;;;;;0.00;0.00;;;27.50;59.40;;;;;;5071520;28;20177;-71
2023/06/12 05:55:57;;;;;;;0.10;0.10;;;27.60;58.90;;;;;;5071251;28;20185;-70
2023/06/12 05:58:23;;;;;;;0.00;0.00;;;27.50;59.20;;;;;;5071413;28;20177;-71
2023/06/12 06:00:49;;;;;;;0.00;0.00;;;27.50;59.30;;;;;;5071210;28;20172;-70
2023/06/12 06:03:15;;;;;;;0.00;0.00;;;27.70;59.00;;;;;;5071364;28;20212;-70
2023/06/12 06:05:41;;;;;;;0.00;0.00;;;27.80;58.50;;;;;;5071341;28;20207;-70
2023/06/12 06:08:06;;;;;;;0.00;0.00;;;27.90;58.30;;;;;;5071229;28;20183;-70
2023/06/12 06:10:32;;;;;;;0.00;0.00;;;27.90;57.80;;;;;;5071202;28;20177;-70
2023/06/12 06:12:57;;;;;;;0.22;0.22;;;28.00;57.90;;;;;;5071176;28;20628;-69
2023/06/12 06:15:23;;;;;;;0.00;0.00;;;28.10;57.50;;;;;;5071252;28;20644;-69
2023/06/12 06:17:48;;;;;;;0.00;0.00;;;28.20;57.80;;;;;;5071099;28;20184;-70
2023/06/12 06:20:15;;;;;;;0.00;0.00;;;28.30;57.30;;;;;;5071200;28;20509;-70
2023/06/12 06:22:42;;;;;;;0.00;0.00;;;28.80;56.80;;;;;;5070933;28;20227;-69
2023/06/12 06:25:09;;;;;;;0.00;0.00;;;29.20;56.00;;;;;;5071126;28;20172;-70
2023/06/12 06:27:35;;;;;;;0.00;0.00;;;29.60;55.50;;;;;;5069851;28;20216;-69
2023/06/12 06:30:01;;;;;;;0.00;0.00;;;29.80;55.00;;;;;;5070879;28;20247;-70
2023/06/12 06:32:27;;;;;;;0.00;0.00;;;30.00;54.50;;;;;;5070415;28;20664;-70
2023/06/12 06:34:52;;;;;;;0.00;0.00;;;30.40;54.10;;;;;;5070886;28;20181;-69
2023/06/12 06:37:18;;;;;;;0.00;0.00;;;30.70;53.40;;;;;;5070601;28;20173;-71
2023/06/12 06:39:43;;;;;;;0.00;0.00;;;30.80;53.00;;;;;;5070812;28;20187;-69
2023/06/12 06:42:09;;;;;;;0.00;0.00;;;31.00;53.00;;;;;;5070934;28;20208;-73
2023/06/12 06:44:35;;;;;;;0.00;0.00;;;31.10;52.70;;;;;;5070906;28;20223;-72
2023/06/12 06:47:00;;;;;;;1.33;1.23;;;31.20;52.90;;;;;;5070940;28;20219;-72
2023/06/12 06:49:26;;;;;;;0.00;0.00;;;31.20;53.10;;;;;;5070390;28;20172;-73
2023/06/12 06:51:52;;;;;;;0.00;0.00;;;31.10;52.20;;;;;;5070968;28;20179;-74
2023/06/12 06:54:17;;;;;;;0.00;0.00;;;31.10;52.20;;;;;;5070534;28;20535;-71
2023/06/12 06:56:43;;;;;;;0.00;0.00;;;31.40;52.50;;;;;;5070256;28;20279;-72
2023/06/12 06:59:08;;;;;;;0.10;0.10;;;31.70;51.80;;;;;;5074361;28;20574;-72
2023/06/12 07:01:34;;;;;;;0.00;0.00;;;31.90;51.20;;;;;;5074208;28;20202;-71
2023/06/12 07:04:00;;;;;;;0.00;0.00;;;32.00;51.00;;;;;;5074381;28;20211;-72
2023/06/12 07:06:26;;;;;;;0.00;0.00;;;32.40;51.00;;;;;;5074449;28;20203;-72
2023/06/12 07:08:51;;;;;;;0.00;0.00;;;32.80;50.20;;;;;;5074505;28;20261;-71
2023/06/12 07:11:17;;;;;;;0.80;0.75;;;33.00;49.20;;;;;;5073853;28;20172;-72
2023/06/12 07:13:42;;;;;;;0.00;0.00;;;33.30;48.90;;;;;;5074505;28;20176;-73
2023/06/12 07:16:08;;;;;;;0.00;0.00;;;33.20;48.40;;;;;;5074356;28;20651;-71
2023/06/12 07:18:33;;;;;;;0.00;0.00;;;33.10;48.80;;;;;;5073978;28;20183;-71
2023/06/12 07:20:59;;;;;;;0.00;0.00;;;33.20;48.60;;;;;;5074228;28;20191;-72
2023/06/12 07:23:25;;;;;;;0.00;0.00;;;33.20;48.10;;;;;;5073464;28;20216;-72
2023/06/12 07:25:50;;;;;;;0.00;0.00;;;33.30;48.30;;;;;;5073697;28;20164;-74
2023/06/12 07:28:16;;;;;;;0.28;0.10;;;33.40;48.20;;;;;;5074085;28;20285;-72
2023/06/12 07:30:41;;;;;;;0.00;0.00;;;33.30;48.30;;;;;;5073273;28;20451;-73
2023/06/12 07:33:08;;;;;;;0.00;0.00;;;33.50;47.60;;;;;;5074064;28;20659;-74
2023/06/12 07:35:35;;;;;;;0.03;0.03;;;33.50;47.40;;;;;;5074375;28;20200;-73
2023/06/12 07:38:02;;;;;;;0.00;0.00;;;33.50;47.50;;;;;;5073780;28;20267;-73
2023/06/12 07:40:27;;;;;;;0.00;0.00;;;33.70;47.80;;;;;;5074166;28;20165;-73
2023/06/12 07:42:53;;;;;;;0.75;0.75;;;33.70;46.80;;;;;;5073668;28;20212;-72
2023/06/12 07:45:19;;;;;;;0.00;0.00;;;34.00;47.20;;;;;;5074007;28;20245;-72
2023/06/12 07:47:45;;;;;;;0.00;0.00;;;34.40;47.00;;;;;;5073678;28;20179;-70
2023/06/12 07:50:11;;;;;;;0.00;0.00;;;34.70;46.80;;;;;;5073820;28;20176;-73
2023/06/12 07:52:37;;;;;;;0.32;0.13;;;34.60;45.80;;;;;;5073307;28;20165;-71
2023/06/12 07:55:03;;;;;;;0.08;0.00;;;34.50;46.10;;;;;;5073884;28;20214;-71
2023/06/12 07:57:29;;;;;;;0.00;0.00;;;34.60;45.30;;;;;;5073662;28;20172;-71
2023/06/12 07:59:54;;;;;;;0.00;0.00;;;34.50;45.80;;;;;;5073402;28;20214;-72
2023/06/12 08:02:21;;;;;;;0.00;0.00;;;34.30;45.40;;;;;;5072985;28;20260;-74
2023/06/12 08:04:46;;;;;;;0.00;0.00;;;34.20;45.80;;;;;;5073057;28;20188;-72
2023/06/12 08:07:16;;;;;;;0.00;0.00;;;33.90;46.10;;;;;;5073588;28;20221;-72
2023/06/12 08:09:41;;;;;;;0.00;0.00;;;33.40;46.40;;;;;;5072184;28;20573;-71
2023/06/12 08:12:09;;;;;;;0.00;0.00;;;32.70;47.80;;;;;;5073088;28;20164;-69
2023/06/12 08:14:35;;;;;;;0.00;0.00;;;32.40;48.50;;;;;;5073306;28;20184;-69
2023/06/12 08:17:00;;;;;;;0.00;0.00;;;32.50;48.70;;;;;;5072857;28;20282;-69
2023/06/12 08:19:26;;;;;;;0.00;0.00;;;32.60;48.40;;;;;;5073231;28;20643;-69
2023/06/12 08:21:52;;;;;;;0.00;0.00;;;32.80;49.10;;;;;;5072797;28;20180;-69
2023/06/12 08:24:17;;;;;;;0.00;0.00;;;33.20;49.00;;;;;;5072838;28;20194;-67
2023/06/12 08:26:43;;;;;;;0.00;0.00;;;33.30;48.00;;;;;;5072859;28;20220;-70
2023/06/12 08:29:08;;;;;;;0.00;0.00;;;33.30;47.10;;;;;;5073089;28;20182;-70
2023/06/12 08:31:34;;;;;;;0.38;0.25;;;33.20;47.80;;;;;;5071789;28;20172;-70
2023/06/12 08:34:00;;;;;;;0.00;0.00;;;33.00;47.80;;;;;;5072549;28;20527;-69
2023/06/12 08:36:26;;;;;;;0.00;0.00;;;33.00;48.30;;;;;;5072966;28;20176;-70
2023/06/12 08:38:51;;;;;;;0.00;0.00;;;32.80;48.70;;;;;;5072402;28;20180;-71
2023/06/12 08:41:19;;;;;;;0.00;0.00;;;32.80;48.40;;;;;;5072310;28;20652;-70
2023/06/12 08:43:47;;;;;;;0.00;0.00;;;33.00;48.80;;;;;;5072482;28;20656;-70
2023/06/12 08:46:15;;;;;;;0.00;0.00;;;33.00;47.60;;;;;;5072513;28;20200;-69
2023/06/12 08:48:43;;;;;;;0.00;0.00;;;33.00;48.10;;;;;;5071925;28;20184;-70
2023/06/12 08:51:09;;;;;;;0.00;0.00;;;33.10;49.00;;;;;;5072537;28;20164;-70
2023/06/12 08:53:35;;;;;;;0.00;0.00;;;33.30;49.10;;;;;;5072285;28;20184;-71
2023/06/12 08:56:00;;;;;;;0.00;0.00;;;33.60;48.40;;;;;;5072039;28;20658;-71
2023/06/12 08:58:26;;;;;;;0.00;0.00;;;33.40;47.30;;;;;;5072400;28;20188;-72
2023/06/12 09:00:52;;;;;;;0.00;0.00;;;33.10;48.10;;;;;;5072137;28;20777;-72
2023/06/12 09:03:19;;;;;;;0.00;0.00;;;33.00;48.40;;;;;;5072439;28;20880;-72
2023/06/12 09:05:46;;;;;;;0.00;0.00;;;33.20;48.80;;;;;;5071757;28;20218;-71
2023/06/12 09:08:12;;;;;;;0.00;0.00;;;33.50;48.00;;;;;;5072384;28;20207;-72
2023/06/12 09:10:40;;;;;;;0.00;0.00;;;33.40;47.80;;;;;;5072083;28;20631;-71
2023/06/12 09:13:08;;;;;;;0.00;0.00;;;33.20;47.80;;;;;;5072164;28;20250;-71
2023/06/12 09:15:33;;;;;;;0.00;0.00;;;33.30;47.30;;;;;;5071809;28;20192;-71
2023/06/12 09:17:59;;;;;;;0.00;0.00;;;33.20;47.00;;;;;;5071931;28;20180;-71
2023/06/12 09:20:27;;;;;;;0.00;0.00;;;33.20;47.90;;;;;;5071493;28;20271;-71
2023/06/12 09:22:54;;;;;;;0.00;0.00;;;33.00;46.60;;;;;;5051410;28;20666;-72
2023/06/12 09:25:20;;;;;;;0.10;0.10;;;32.20;45.60;;;;;;5052098;28;20180;-71
2023/06/12 09:27:47;;;;;;;0.10;0.10;;;31.70;45.00;;;;;;5051641;28;20288;-72
2023/06/12 09:30:13;;;;;;;0.08;0.00;;;31.60;45.50;;;;;;5057596;28;20173;-72
2023/06/12 09:32:41;;;;;;;0.00;0.00;;;31.30;45.20;;;;;;5072453;28;20192;-74
2023/06/12 09:35:07;;;;;;;0.17;0.17;;;30.80;44.80;;;;;;5071421;28;20165;-72
2023/06/12 09:37:32;;;;;;;0.00;0.00;;;30.40;46.20;;;;;;5071580;28;20195;-70
2023/06/12 09:40:11;;;;;;;0.00;0.00;;;30.10;46.30;;;;;;5071659;28;20165;-68
2023/06/12 09:42:38;;;;;;;0.10;0.05;;;30.20;46.80;;;;;;5071517;28;20254;-71
2023/06/12 09:45:29;;;;;;;0.00;0.00;;;30.00;48.00;;;;;;5071471;28;20674;-73
2023/06/12 09:47:55;;;;;;;0.00;0.00;;;29.80;48.30;;;;;;5069118;28;20272;-70
2023/06/12 09:50:23;;;;;;;0.03;0.03;;;30.10;49.10;;;;;;5070536;28;20267;-72
2023/06/12 09:52:49;;;;;;;0.00;0.00;;;30.50;48.50;;;;;;5071341;28;20181;-74
2023/06/12 09:55:17;;;;;;;0.00;0.00;;;30.80;47.60;;;;;;5071524;28;20221;-72
2023/06/12 09:57:50;;;;;;;0.00;0.00;;;30.90;46.80;;;;;;5071308;28;20639;-71
2023/06/12 10:00:16;;;;;;;0.00;0.00;;;30.90;46.50;;;;;;5070974;28;20816;-71
2023/06/12 10:03:06;;;;;;;0.00;0.00;;;30.80;46.30;;;;;;5071252;28;20212;-71
2023/06/12 10:05:37;;;;;;;0.00;0.00;;;30.40;47.00;;;;;;5071348;28;20200;-71
2023/06/12 10:08:06;;;;;;;0.00;0.00;;;30.00;47.80;;;;;;5071059;28;20187;-71
2023/06/12 10:10:34;;;;;;;0.10;0.10;;;29.70;48.50;;;;;;5071119;28;20173;-71
2023/06/12 10:13:01;;;;;;;0.00;0.00;;;29.80;49.00;;;;;;5070726;28;20177;-71
2023/06/12 10:15:31;;;;;;;0.00;0.00;;;30.10;48.70;;;;;;5070598;28;20181;-71
2023/06/12 10:17:58;;;;;;;0.00;0.00;;;30.50;48.00;;;;;;5071101;28;20570;-71
2023/06/12 10:20:24;;;;;;;0.00;0.00;;;30.40;47.70;;;;;;5070474;28;20234;-73
2023/06/12 10:22:53;;;;;;;0.00;0.00;;;30.20;47.90;;;;;;5050889;28;20212;-71
2023/06/12 10:25:20;;;;;;;0.00;0.00;;;29.90;48.00;;;;;;5059789;28;20187;-70
2023/06/12 10:27:46;;;;;;;0.00;0.00;;;30.00;48.90;;;;;;5069108;28;20309;-70
2023/06/12 10:30:15;;;;;;;1.75;0.13;;;30.00;48.70;;;;;;5070229;28;20322;-73
2023/06/12 10:32:42;;;;;;;0.08;0.08;;;30.20;48.20;;;;;;5070484;28;20664;-72
2023/06/12 10:35:08;;;;;;;0.00;0.00;;;30.20;48.40;;;;;;5070873;28;20183;-71
2023/06/12 10:37:46;;;;;;;0.03;0.03;;;29.90;47.50;;;;;;5071012;28;20181;-71
2023/06/12 10:40:13;;;;;;;0.15;0.15;;;29.90;48.00;;;;;;5071104;28;20180;-72
2023/06/12 10:42:49;;;;;;;0.10;0.10;;;29.80;46.00;;;;;;5071001;28;20200;-72
2023/06/12 10:45:25;;;;;;;0.00;0.00;;;29.80;46.60;;;;;;5071061;28;20169;-72
2023/06/12 10:48:06;;;;;;;0.00;0.00;;;30.10;46.80;;;;;;5070844;28;20844;-73
2023/06/12 10:50:40;;;;;;;0.10;0.10;;;30.60;46.20;;;;;;5070920;28;20183;-72
2023/06/12 10:53:08;;;;;;;0.00;0.00;;;30.50;45.80;;;;;;5070794;28;20164;-72
2023/06/12 10:55:35;;;;;;;0.00;0.00;;;30.60;45.30;;;;;;5070614;28;20185;-72
2023/06/12 10:58:03;;;;;;;0.00;0.00;;;30.70;45.30;;;;;;5069455;28;20199;-73
2023/06/12 11:00:36;;;;;;;0.00;0.00;;;30.80;45.40;;;;;;5070716;28;20179;-73
2023/06/12 11:03:14;;;;;;;0.00;0.00;;;31.00;45.70;;;;;;5070659;28;20293;-73
2023/06/12 11:05:51;;;;;;;0.10;0.10;;;30.90;45.50;;;;;;5070706;28;20176;-73
2023/06/12 11:08:17;;;;;;;0.00;0.00;;;31.00;45.60;;;;;;5070707;28;20185;-73
2023/06/12 11:10:43;;;;;;;0.00;0.00;;;31.30;45.70;;;;;;5070519;28;20749;-73
2023/06/12 11:13:09;;;;;;;0.00;0.00;;;31.50;45.20;;;;;;5070413;28;20204;-72
2023/06/12 11:15:45;;;;;;;0.00;0.00;;;31.40;45.10;;;;;;5069920;28;20196;-72
2023/06/12 11:18:12;;;;;;;0.00;0.00;;;30.90;44.80;;;;;;5070570;28;20176;-71
2023/06/12 11:20:39;;;;;;;0.00;0.00;;;30.70;45.10;;;;;;5070123;28;20648;-71
2023/06/12 11:23:05;;;;;;;0.00;0.00;;;30.60;45.00;;;;;;5070307;28;20217;-70
2023/06/12 11:25:44;;;;;;;0.00;0.00;;;30.80;44.80;;;;;;5070465;28;20177;-66
2023/06/12 11:28:12;;;;;;;0.00;0.00;;;31.00;44.90;;;;;;5070392;28;20270;-67
2023/06/12 11:30:38;;;;;;;0.00;0.00;;;30.90;44.80;;;;;;5070420;28;20180;-66
2023/06/12 11:33:13;;;;;;;0.00;0.00;;;30.50;44.60;;;;;;5070133;28;20181;-67
2023/06/12 11:35:44;;;;;;;0.00;0.00;;;30.00;45.10;;;;;;5070199;28;20172;-66
2023/06/12 11:38:18;;;;;;;0.00;0.00;;;30.00;45.90;;;;;;5070351;28;20251;-67
2023/06/12 11:40:45;;;;;;;0.00;0.00;;;30.20;45.30;;;;;;5069874;28;20211;-67
2023/06/12 11:43:10;;;;;;;0.00;0.00;;;30.50;45.60;;;;;;5070373;28;20251;-69
2023/06/12 11:45:42;;;;;;;0.00;0.00;;;30.60;46.00;;;;;;5072950;28;20204;-69
2023/06/12 11:48:14;;;;;;;0.00;0.00;;;30.60;46.30;;;;;;5073589;28;20174;-70
2023/06/12 11:50:40;;;;;;;0.00;0.00;;;30.70;46.80;;;;;;5073799;28;20663;-69
2023/06/12 11:53:06;;;;;;;0.00;0.00;;;30.90;45.60;;;;;;5073498;28;20185;-68
2023/06/12 11:55:32;;;;;;;0.25;0.10;;;31.20;45.80;;;;;;5073440;28;20193;-68
2023/06/12 11:58:01;;;;;;;0.00;0.00;;;31.30;45.10;;;;;;5073203;28;20212;-69
2023/06/12 12:00:26;;;;;;;0.32;0.32;;;31.60;43.90;;;;;;5073124;28;21416;-69
2023/06/12 12:02:53;;;;;;;0.03;0.03;;;31.50;43.40;;;;;;5074504;28;20707;-68
2023/06/12 12:05:21;;;;;;;0.00;0.00;;;31.50;43.70;;;;;;5073561;28;20169;-68
2023/06/12 12:07:52;;;;;;;0.00;0.00;;;31.60;43.10;;;;;;5073303;28;20164;-67
2023/06/12 12:10:17;;;;;;;0.00;0.00;;;31.50;43.70;;;;;;5073621;28;20231;-68
2023/06/12 12:12:51;;;;;;;0.00;0.00;;;31.50;43.10;;;;;;5073259;28;20185;-67
2023/06/12 12:15:20;;;;;;;0.08;0.08;;;31.30;42.70;;;;;;5073159;28;20198;-68
2023/06/12 12:17:46;;;;;;;0.00;0.00;;;31.20;42.60;;;;;;5073128;28;20180;-67
2023/06/12 12:20:38;;;;;;;0.00;0.00;;;31.10;43.20;;;;;;5073361;28;20804;-68
2023/06/12 12:23:10;;;;;;;0.00;0.00;;;31.20;44.10;;;;;;5069596;28;20220;-68
2023/06/12 12:25:35;;;;;;;0.00;0.00;;;31.30;43.10;;;;;;5072778;28;20185;-67
2023/06/12 12:28:02;;;;;;;0.10;0.10;;;31.60;42.60;;;;;;5073088;28;20807;-68
2023/06/12 12:30:28;;;;;;;0.00;0.00;;;31.90;42.90;;;;;;5072471;28;20639;-67
2023/06/12 12:32:55;;;;;;;0.00;0.00;;;32.00;41.80;;;;;;5072914;28;20207;-70
2023/06/12 12:35:22;;;;;;;0.00;0.00;;;31.90;41.20;;;;;;5073116;28;20241;-69
2023/06/12 12:37:49;;;;;;;0.22;0.22;;;31.90;41.20;;;;;;5072675;28;20164;-68
2023/06/12 12:40:15;;;;;;;0.00;0.00;;;31.70;41.70;;;;;;5072945;28;20265;-68
2023/06/12 12:42:44;;;;;;;0.10;0.10;;;31.90;42.30;;;;;;5071658;28;20205;-68
2023/06/12 12:45:11;;;;;;;0.00;0.00;;;31.90;42.10;;;;;;5072780;28;20180;-68
2023/06/12 12:47:40;;;;;;;0.00;0.00;;;31.60;42.80;;;;;;5072725;28;20538;-67
2023/06/12 12:50:07;;;;;;;0.00;0.00;;;31.30;42.70;;;;;;5072146;28;20205;-68